createdAt,value
2022-11-25T00:01:24.390Z,100936.91
2022-11-25T00:03:53.883Z,100935.97
2022-11-25T00:06:26.480Z,100942.09
2022-11-25T00:08:59.505Z,100937.75
2022-11-25T00:11:27.857Z,100937.69
2022-11-25T00:13:56.596Z,100944.66
2022-11-25T00:16:26.413Z,100952.28
2022-11-25T00:18:55.775Z,100942.91
2022-11-25T00:21:26.007Z,100932.59
2022-11-25T00:23:58.895Z,100943.03
2022-11-25T00:26:27.951Z,100943.00
2022-11-25T00:28:57.883Z,100934.41
2022-11-25T00:31:31.601Z,100931.78
2022-11-25T00:33:59.153Z,100936.09
2022-11-25T00:36:29.223Z,100936.03
2022-11-25T00:38:57.647Z,100929.16
2022-11-25T00:41:45.184Z,100923.97
2022-11-25T00:44:33.946Z,100923.06
2022-11-25T00:47:12.823Z,100919.59
2022-11-25T00:49:45.377Z,100922.19
2022-11-25T00:52:15.296Z,100922.19
2022-11-25T00:54:44.657Z,100917.13
2022-11-25T00:57:12.394Z,100920.63
2022-11-25T00:59:39.623Z,100921.44
2022-11-25T01:02:07.852Z,100923.09
2022-11-25T01:04:35.534Z,100929.06
2022-11-25T01:07:03.284Z,100923.91
2022-11-25T01:09:31.429Z,100932.50
2022-11-25T01:11:58.694Z,100936.00
2022-11-25T01:14:26.330Z,100938.53
2022-11-25T01:16:53.664Z,100942.94
2022-11-25T01:19:21.116Z,100958.31
2022-11-25T01:21:48.561Z,100965.25
2022-11-25T01:24:16.942Z,100962.56
2022-11-25T01:26:45.097Z,100958.25
2022-11-25T01:29:17.430Z,100964.25
2022-11-25T01:31:46.143Z,100965.03
2022-11-25T01:34:16.830Z,100968.53
2022-11-25T01:36:44.664Z,100972.84
2022-11-25T01:39:20.776Z,100971.25
2022-11-25T01:41:49.014Z,100980.69
2022-11-25T01:44:19.835Z,100988.50
2022-11-25T01:47:02.469Z,101002.22
2022-11-25T01:49:45.238Z,100994.50
2022-11-25T01:52:28.639Z,100981.66
2022-11-25T01:54:59.798Z,100986.81
2022-11-25T01:57:56.673Z,100996.34
2022-11-25T02:00:25.683Z,101001.47
2022-11-25T02:02:55.392Z,100998.78
2022-11-25T02:05:35.962Z,101002.19
2022-11-25T02:08:05.971Z,101002.25
2022-11-25T02:10:34.878Z,101006.56
2022-11-25T02:13:03.105Z,101006.63
2022-11-25T02:15:34.202Z,101013.44
2022-11-25T02:18:05.042Z,101011.69
2022-11-25T02:20:32.528Z,101015.19
2022-11-25T02:23:12.540Z,101011.63
2022-11-25T02:25:41.716Z,101027.94
2022-11-25T02:28:15.072Z,101021.03
2022-11-25T02:30:43.096Z,101027.03
2022-11-25T02:33:11.016Z,101037.31
2022-11-25T02:35:47.032Z,101025.25
2022-11-25T02:38:33.098Z,101030.41
2022-11-25T02:41:10.737Z,101033.81
2022-11-25T02:43:39.602Z,101028.66
2022-11-25T02:46:10.277Z,101028.66
2022-11-25T02:51:30.716Z,101020.06
2022-11-25T02:54:01.137Z,101024.34
2022-11-25T02:56:32.559Z,101022.75
2022-11-25T02:58:59.922Z,101022.75
2022-11-25T03:01:31.174Z,101027.94
2022-11-25T03:03:59.486Z,101030.53
2022-11-25T03:06:29.167Z,101031.34
2022-11-25T03:08:57.180Z,101028.72
2022-11-25T03:11:44.870Z,101033.88
2022-11-25T03:14:12.806Z,101040.78
2022-11-25T03:16:40.419Z,101037.34
2022-11-25T03:19:08.594Z,101033.91
2022-11-25T03:21:36.113Z,101026.16
2022-11-25T03:24:03.525Z,101044.13
2022-11-25T03:26:31.283Z,101049.28
2022-11-25T03:28:58.715Z,101050.94
2022-11-25T03:31:26.055Z,101063.03
2022-11-25T03:33:53.509Z,101066.41
2022-11-25T03:36:21.835Z,101060.44
2022-11-25T03:38:49.223Z,101068.94
2022-11-25T03:41:16.587Z,101056.16
2022-11-25T03:43:43.895Z,101065.53
2022-11-25T03:46:11.190Z,101075.81
2022-11-25T03:48:38.690Z,101074.13
2022-11-25T03:51:08.353Z,101071.47
2022-11-25T03:53:36.220Z,101057.78
2022-11-25T03:56:06.535Z,101076.59
2022-11-25T03:58:35.230Z,101071.56
2022-11-25T04:01:04.298Z,101068.13
2022-11-25T04:03:31.942Z,101064.69
2022-11-25T04:05:59.846Z,101067.28
2022-11-25T04:08:27.454Z,101070.63
2022-11-25T04:10:55.000Z,101061.25
2022-11-25T04:13:25.307Z,101064.59
2022-11-25T04:15:53.058Z,101063.78
2022-11-25T04:18:21.461Z,101085.31
2022-11-25T04:20:52.399Z,101081.00
2022-11-25T04:23:19.886Z,101076.59
2022-11-25T04:25:55.693Z,101057.78
2022-11-25T04:28:29.354Z,101057.72
2022-11-25T04:30:57.368Z,101064.47
2022-11-25T04:33:24.692Z,101078.25
2022-11-25T04:35:53.172Z,101063.56
2022-11-25T04:38:21.311Z,101055.81
2022-11-25T04:40:49.520Z,101072.09
2022-11-25T04:43:20.717Z,101071.34
2022-11-25T04:46:14.247Z,101070.47
2022-11-25T04:48:45.042Z,101074.00
2022-11-25T04:51:14.213Z,101078.28
2022-11-25T04:53:42.688Z,101071.38
2022-11-25T04:56:18.493Z,101080.03
2022-11-25T04:59:05.821Z,101079.97
2022-11-25T05:01:36.240Z,101073.06
2022-11-25T05:04:33.080Z,101071.28
2022-11-25T05:07:00.973Z,101052.41
2022-11-25T05:09:29.129Z,101045.53
2022-11-25T05:12:22.269Z,101033.59
2022-11-25T05:14:50.067Z,101035.31
2022-11-25T05:17:20.489Z,101056.75
2022-11-25T05:19:48.192Z,101043.94
2022-11-25T05:22:20.397Z,101044.72
2022-11-25T05:24:47.871Z,101058.50
2022-11-25T05:27:16.258Z,101067.03
2022-11-25T05:29:44.011Z,101071.38
2022-11-25T05:32:12.604Z,101056.03
2022-11-25T05:34:40.979Z,101047.44
2022-11-25T05:37:12.447Z,101051.66
2022-11-25T05:39:42.848Z,101065.41
2022-11-25T05:42:40.453Z,101048.34
2022-11-25T05:45:09.432Z,101061.06
2022-11-25T05:47:36.875Z,101053.13
2022-11-25T05:50:06.412Z,101054.06
2022-11-25T05:52:34.014Z,101052.41
2022-11-25T05:55:02.310Z,101056.75
2022-11-25T05:57:31.382Z,101048.25
2022-11-25T06:00:08.802Z,101047.38
2022-11-25T06:02:42.425Z,101045.66
2022-11-25T06:05:12.838Z,101042.31
2022-11-25T06:07:40.746Z,101045.81
2022-11-25T06:10:09.032Z,101056.84
2022-11-25T06:12:38.849Z,101062.94
2022-11-25T06:15:07.101Z,101074.06
2022-11-25T06:17:36.127Z,101069.75
2022-11-25T06:20:29.801Z,101075.78
2022-11-25T06:22:58.724Z,101087.91
2022-11-25T06:25:32.028Z,101089.50
2022-11-25T06:28:15.268Z,101088.38
2022-11-25T06:30:47.681Z,101077.19
2022-11-25T06:33:28.162Z,101090.88
2022-11-25T06:35:58.168Z,101096.91
2022-11-25T06:38:25.588Z,101110.59
2022-11-25T06:40:54.235Z,101114.81
2022-11-25T06:43:25.053Z,101105.47
2022-11-25T06:45:52.423Z,101102.13
2022-11-25T06:48:19.754Z,101097.94
2022-11-25T06:50:55.918Z,101105.59
2022-11-25T06:53:24.329Z,101115.91
2022-11-25T06:56:16.635Z,101114.19
2022-11-25T06:58:48.003Z,101102.22
2022-11-25T07:01:51.113Z,101098.91
2022-11-25T07:04:19.775Z,101111.00
2022-11-25T07:09:35.682Z,101136.91
2022-11-25T07:12:03.529Z,101135.13
2022-11-25T07:14:31.021Z,101129.97
2022-11-25T07:16:58.322Z,101142.00
2022-11-25T07:19:25.852Z,101141.16
2022-11-25T07:21:53.210Z,101144.66
2022-11-25T07:24:21.487Z,101137.00
2022-11-25T07:26:49.136Z,101148.16
2022-11-25T07:29:51.604Z,101144.69
2022-11-25T07:32:10.289Z,101136.91
2022-11-25T07:34:40.827Z,101141.91
2022-11-25T07:37:08.329Z,101128.88
2022-11-25T07:39:38.785Z,101127.09
2022-11-25T07:42:08.733Z,101124.44
2022-11-25T07:44:38.074Z,101142.28
2022-11-25T07:47:25.403Z,101144.81
2022-11-25T07:49:54.009Z,101147.94
2022-11-25T07:52:21.376Z,101145.94
2022-11-25T07:54:48.788Z,101143.91
2022-11-25T07:57:16.152Z,101139.38
2022-11-25T07:59:43.463Z,101141.53
2022-11-25T08:02:11.067Z,101149.34
2022-11-25T08:04:38.718Z,101144.75
2022-11-25T08:07:06.109Z,101136.38
2022-11-25T08:09:34.704Z,101140.09
2022-11-25T08:12:02.232Z,101144.44
2022-11-25T08:14:30.439Z,101131.19
2022-11-25T08:16:58.862Z,101131.56
2022-11-25T08:19:33.628Z,101138.25
2022-11-25T08:22:01.451Z,101134.91
2022-11-25T08:24:29.055Z,101141.31
2022-11-25T08:27:06.193Z,101145.78
2022-11-25T08:29:34.298Z,101143.69
2022-11-25T08:32:10.287Z,101150.06
2022-11-25T08:34:42.312Z,101149.91
2022-11-25T08:37:16.931Z,101151.38
2022-11-25T08:39:52.821Z,101149.06
2022-11-25T08:42:24.596Z,101155.34
2022-11-25T08:44:59.070Z,101145.44
2022-11-25T08:47:34.977Z,101161.53
2022-11-25T08:50:29.831Z,101157.16
2022-11-25T08:52:58.477Z,101158.59
2022-11-25T08:55:29.153Z,101152.56
2022-11-25T08:57:57.720Z,101159.84
2022-11-25T09:00:26.813Z,101154.69
2022-11-25T09:02:54.525Z,101154.47
2022-11-25T09:05:26.614Z,101146.53
2022-11-25T09:07:58.376Z,101145.69
2022-11-25T09:10:29.734Z,101151.19
2022-11-25T09:13:00.106Z,101154.56
2022-11-25T09:15:39.199Z,101151.00
2022-11-25T09:18:08.662Z,101150.75
2022-11-25T09:20:38.547Z,101154.94
2022-11-25T09:23:07.580Z,101151.56
2022-11-25T09:25:36.141Z,101151.78
2022-11-25T09:28:04.436Z,101147.31
2022-11-25T09:30:32.224Z,101150.84
2022-11-25T09:32:59.580Z,101148.25
2022-11-25T09:35:27.299Z,101154.38
2022-11-25T09:37:54.613Z,101148.66
2022-11-25T09:40:35.478Z,101143.81
2022-11-25T09:43:36.801Z,101150.47
2022-11-25T09:46:46.077Z,101153.03
2022-11-25T09:49:39.176Z,101139.97
2022-11-25T09:52:51.581Z,101144.38
2022-11-25T09:55:24.077Z,101138.16
2022-11-25T09:58:05.340Z,101135.75
2022-11-25T10:00:41.084Z,101140.56
2022-11-25T10:03:45.856Z,101136.19
2022-11-25T10:06:19.695Z,101144.66
2022-11-25T10:08:54.351Z,101152.09
2022-11-25T10:11:38.651Z,101149.28
2022-11-25T10:14:11.293Z,101140.94
2022-11-25T10:16:38.603Z,101139.91
2022-11-25T10:19:35.598Z,101143.03
2022-11-25T10:22:22.888Z,101136.25
2022-11-25T10:24:53.282Z,101139.19
2022-11-25T10:27:39.039Z,101137.66
2022-11-25T10:30:29.573Z,101140.53
2022-11-25T10:33:22.566Z,101133.78
2022-11-25T10:35:56.166Z,101128.56
2022-11-25T10:38:32.620Z,101123.50
2022-11-25T10:41:02.728Z,101136.91
2022-11-25T10:43:32.096Z,101126.72
2022-11-25T10:46:15.679Z,101129.34
2022-11-25T10:49:01.716Z,101124.84
2022-11-25T10:51:37.702Z,101118.59
2022-11-25T10:54:15.268Z,101122.69
2022-11-25T10:57:01.543Z,101126.06
2022-11-25T10:59:34.974Z,101128.81
2022-11-25T11:02:24.740Z,101128.22
2022-11-25T11:04:58.800Z,101121.88
2022-11-25T11:07:30.287Z,101123.59
2022-11-25T11:10:17.837Z,101123.06
2022-11-25T11:12:59.478Z,101107.81
2022-11-25T11:15:29.983Z,101114.84
2022-11-25T11:17:59.188Z,101102.34
2022-11-25T11:20:31.470Z,101096.75
2022-11-25T11:23:08.865Z,101093.81
2022-11-25T11:25:39.116Z,101096.19
2022-11-25T11:28:38.649Z,101088.63
2022-11-25T11:31:24.426Z,101078.88
2022-11-25T11:33:51.645Z,101090.19
2022-11-25T11:36:40.876Z,101092.72
2022-11-25T11:39:30.205Z,101088.81
2022-11-25T11:42:00.433Z,101081.28
2022-11-25T11:44:36.768Z,101082.00
2022-11-25T11:47:12.752Z,101082.38
2022-11-25T11:49:49.627Z,101077.09
2022-11-25T11:52:55.488Z,101084.28
2022-11-25T11:56:11.709Z,101075.47
2022-11-25T11:58:57.548Z,101081.88
2022-11-25T12:01:24.825Z,101080.19
2022-11-25T12:04:17.044Z,101077.06
2022-11-25T12:06:56.219Z,101063.38
2022-11-25T12:09:25.584Z,101068.47
2022-11-25T12:11:58.959Z,101070.50
2022-11-25T12:14:37.124Z,101066.22
2022-11-25T12:17:23.858Z,101061.13
2022-11-25T12:20:14.507Z,101053.66
2022-11-25T12:22:53.734Z,101053.97
2022-11-25T12:25:25.288Z,101053.69
2022-11-25T12:27:52.466Z,101056.25
2022-11-25T12:30:22.650Z,101059.84
2022-11-25T12:33:06.081Z,101061.88
2022-11-25T12:35:45.836Z,101062.75
2022-11-25T12:38:25.564Z,101063.44
2022-11-25T12:41:30.955Z,101062.38
2022-11-25T12:44:00.556Z,101058.50
2022-11-25T12:46:43.991Z,101057.22
2022-11-25T12:49:18.323Z,101052.78
2022-11-25T12:52:22.479Z,101069.34
2022-11-25T12:55:26.356Z,101072.28
2022-11-25T12:58:15.269Z,101058.91
2022-11-25T13:01:06.971Z,101055.91
2022-11-25T13:03:55.677Z,101048.44
2022-11-25T13:06:38.564Z,101048.97
2022-11-25T13:09:21.091Z,101046.41
2022-11-25T13:12:07.748Z,101036.94
2022-11-25T13:15:01.013Z,101036.66
2022-11-25T13:17:30.797Z,101038.59
2022-11-25T13:20:29.074Z,101044.06
2022-11-25T13:23:05.545Z,101035.06
2022-11-25T13:25:33.342Z,101039.25
2022-11-25T13:28:03.110Z,101040.69
2022-11-25T13:30:33.499Z,101038.78
2022-11-25T13:33:12.903Z,101036.25
2022-11-25T13:35:43.210Z,101041.38
2022-11-25T13:38:30.796Z,101042.53
2022-11-25T13:40:58.236Z,101042.94
2022-11-25T13:43:25.716Z,101047.22
2022-11-25T13:45:54.695Z,101043.81
2022-11-25T13:48:37.359Z,101039.78
2022-11-25T13:51:27.030Z,101028.84
2022-11-25T13:54:06.591Z,101032.22
2022-11-25T13:56:37.922Z,101024.28
2022-11-25T13:59:11.410Z,101035.47
2022-11-25T14:01:41.985Z,101038.84
2022-11-25T14:04:12.863Z,101047.84
2022-11-25T14:06:57.277Z,101053.31
2022-11-25T14:09:38.179Z,101053.84
2022-11-25T14:12:08.641Z,101059.19
2022-11-25T14:14:54.834Z,101057.75
2022-11-25T14:18:05.145Z,101052.22
2022-11-25T14:21:04.347Z,101057.69
2022-11-25T14:23:43.285Z,101061.22
2022-11-25T14:26:48.821Z,101069.19
2022-11-25T14:29:25.608Z,101068.06
2022-11-25T14:32:21.654Z,101059.81
2022-11-25T14:35:13.759Z,101058.50
2022-11-25T14:37:41.150Z,101063.56
2022-11-25T14:40:36.536Z,101069.66
2022-11-25T14:43:15.049Z,101061.34
2022-11-25T14:45:42.494Z,101071.69
2022-11-25T14:48:23.804Z,101075.88
2022-11-25T14:50:56.405Z,101080.81
2022-11-25T14:53:23.879Z,101080.28
2022-11-25T14:55:51.121Z,101084.00
2022-11-25T14:58:19.362Z,101077.09
2022-11-25T15:00:52.087Z,101078.56
2022-11-25T15:03:20.376Z,101072.06
2022-11-25T15:06:00.687Z,101075.06
2022-11-25T15:08:28.147Z,101070.09
2022-11-25T15:10:57.227Z,101072.03
2022-11-25T15:13:39.398Z,101065.41
2022-11-25T15:16:12.753Z,101081.22
2022-11-25T15:18:49.364Z,101085.13
2022-11-25T15:21:18.603Z,101085.28
2022-11-25T15:23:46.388Z,101083.97
2022-11-25T15:26:18.660Z,101079.03
2022-11-25T15:28:45.899Z,101081.13
2022-11-25T15:31:20.465Z,101080.00
2022-11-25T15:33:54.407Z,101083.91
2022-11-25T15:36:24.727Z,101077.28
2022-11-25T15:38:52.084Z,101079.34
2022-11-25T15:41:40.056Z,101075.31
2022-11-25T15:44:16.361Z,101085.09
2022-11-25T15:46:50.163Z,101089.56
2022-11-25T15:49:19.012Z,101090.63
2022-11-25T15:52:15.560Z,101092.25
2022-11-25T15:54:44.662Z,101092.56
2022-11-25T15:57:28.986Z,101105.03
2022-11-25T15:59:56.165Z,101103.41
2022-11-25T16:02:32.565Z,101110.38
2022-11-25T16:05:29.361Z,101122.41
2022-11-25T16:07:56.453Z,101118.38
2022-11-25T16:10:25.764Z,101117.75
2022-11-25T16:13:14.685Z,101122.16
2022-11-25T16:15:51.409Z,101123.09
2022-11-25T16:18:39.333Z,101127.63
2022-11-25T16:21:12.421Z,101120.84
2022-11-25T16:23:43.122Z,101135.44
2022-11-25T16:26:14.526Z,101139.97
2022-11-25T16:28:42.480Z,101132.09
2022-11-25T16:31:17.478Z,101125.34
2022-11-25T16:33:44.672Z,101129.75
2022-11-25T16:36:12.668Z,101139.56
2022-11-25T16:38:45.736Z,101130.94
2022-11-25T16:41:31.628Z,101125.56
2022-11-25T16:44:02.600Z,101131.94
2022-11-25T16:46:33.463Z,101136.25
2022-11-25T16:49:05.303Z,101143.16
2022-11-25T16:51:32.347Z,101136.09
2022-11-25T16:54:17.503Z,101142.84
2022-11-25T16:56:46.137Z,101134.22
2022-11-25T16:59:29.180Z,101125.63
2022-11-25T17:01:56.516Z,101127.19
2022-11-25T17:04:24.435Z,101125.34
2022-11-25T17:07:30.605Z,101116.97
2022-11-25T17:09:44.692Z,101129.28
2022-11-25T17:12:19.132Z,101125.97
2022-11-25T17:14:47.983Z,101123.47
2022-11-25T17:17:24.153Z,101135.66
2022-11-25T17:19:53.468Z,101134.84
2022-11-25T17:22:22.072Z,101129.81
2022-11-25T17:24:49.253Z,101131.66
2022-11-25T17:27:26.159Z,101135.97
2022-11-25T17:29:54.383Z,101133.47
2022-11-25T17:32:22.229Z,101125.00
2022-11-25T17:34:49.532Z,101135.31
2022-11-25T17:37:19.823Z,101131.91
2022-11-25T17:39:47.204Z,101128.31
2022-11-25T17:42:15.979Z,101135.28
2022-11-25T17:44:46.694Z,101144.09
2022-11-25T17:47:17.573Z,101150.94
2022-11-25T17:49:45.929Z,101152.94
2022-11-25T17:52:13.390Z,101156.44
2022-11-25T17:54:41.190Z,101164.91
2022-11-25T17:57:12.301Z,101169.34
2022-11-25T17:59:40.120Z,101168.44
2022-11-25T18:02:18.713Z,101161.56
2022-11-25T18:04:46.966Z,101170.38
2022-11-25T18:07:14.232Z,101173.63
2022-11-25T18:09:41.489Z,101172.03
2022-11-25T18:12:28.916Z,101172.13
2022-11-25T18:14:56.333Z,101168.13
2022-11-25T18:17:23.399Z,101168.84
2022-11-25T18:19:54.968Z,101169.91
2022-11-25T18:22:24.223Z,101170.00
2022-11-25T18:24:52.089Z,101168.22
2022-11-25T18:27:32.891Z,101180.25
2022-11-25T18:30:33.433Z,101179.38
2022-11-25T18:33:01.701Z,101179.59
2022-11-25T18:35:36.861Z,101177.97
2022-11-25T18:38:04.850Z,101184.88
2022-11-25T18:40:32.683Z,101189.94
2022-11-25T18:45:47.312Z,101195.25
2022-11-25T18:48:18.759Z,101193.47
2022-11-25T18:50:46.497Z,101188.34
2022-11-25T18:53:14.018Z,101201.31
2022-11-25T18:55:41.363Z,101200.47
2022-11-25T18:58:16.886Z,101193.56
2022-11-25T19:00:45.276Z,101203.97
2022-11-25T19:03:33.820Z,101209.19
2022-11-25T19:06:08.513Z,101219.38
2022-11-25T19:08:36.503Z,101217.59
2022-11-25T19:11:03.710Z,101215.19
2022-11-25T19:13:32.907Z,101218.81
2022-11-25T19:16:04.425Z,101217.03
2022-11-25T19:18:31.632Z,101210.94
2022-11-25T19:20:58.776Z,101222.16
2022-11-25T19:23:31.091Z,101217.00
2022-11-25T19:26:00.448Z,101213.59
2022-11-25T19:28:29.631Z,101205.78
2022-11-25T19:31:03.145Z,101207.53
2022-11-25T19:33:41.579Z,101207.59
2022-11-25T19:36:23.175Z,101211.84
2022-11-25T19:38:50.684Z,101209.03
2022-11-25T19:41:18.100Z,101207.16
2022-11-25T19:43:45.221Z,101209.94
2022-11-25T19:46:30.091Z,101213.41
2022-11-25T19:49:04.987Z,101226.16
2022-11-25T19:51:33.383Z,101226.25
2022-11-25T19:54:00.438Z,101222.19
2022-11-25T19:56:27.591Z,101219.66
2022-11-25T19:58:54.759Z,101223.03
2022-11-25T20:01:24.654Z,101222.09
2022-11-25T20:03:52.035Z,101233.34
2022-11-25T20:06:19.553Z,101240.38
2022-11-25T20:08:47.907Z,101245.50
2022-11-25T20:11:16.564Z,101243.88
2022-11-25T20:13:43.878Z,101250.72
2022-11-25T20:16:19.172Z,101257.59
2022-11-25T20:18:46.410Z,101252.50
2022-11-25T20:21:28.224Z,101250.75
2022-11-25T20:23:55.929Z,101251.63
2022-11-25T20:26:36.110Z,101246.44
2022-11-25T20:29:09.911Z,101246.41
2022-11-25T20:31:37.156Z,101249.00
2022-11-25T20:34:04.275Z,101254.13
2022-11-25T20:36:32.120Z,101245.59
2022-11-25T20:39:01.408Z,101247.25
2022-11-25T20:41:29.675Z,101244.53
2022-11-25T20:43:57.757Z,101248.69
2022-11-25T20:46:29.149Z,101250.47
2022-11-25T20:48:58.023Z,101248.00
2022-11-25T20:51:25.891Z,101257.53
2022-11-25T20:53:55.280Z,101256.59
2022-11-25T20:56:23.186Z,101257.34
2022-11-25T20:58:50.722Z,101251.25
2022-11-25T21:01:20.993Z,101262.66
2022-11-25T21:03:49.542Z,101267.69
2022-11-25T21:06:21.097Z,101279.84
2022-11-25T21:08:49.252Z,101280.69
2022-11-25T21:11:17.291Z,101273.06
2022-11-25T21:13:45.130Z,101281.53
2022-11-25T21:16:12.592Z,101269.53
2022-11-25T21:18:41.445Z,101278.19
2022-11-25T21:21:24.791Z,101294.47
2022-11-25T21:23:52.236Z,101282.47
2022-11-25T21:26:20.960Z,101278.25
2022-11-25T21:28:49.273Z,101273.13
2022-11-25T21:31:18.462Z,101262.84
2022-11-25T21:33:46.590Z,101261.13
2022-11-25T21:36:19.375Z,101260.19
2022-11-25T21:38:47.065Z,101263.63
2022-11-25T21:41:14.155Z,101263.66
2022-11-25T21:43:45.526Z,101266.34
2022-11-25T21:46:14.268Z,101276.56
2022-11-25T21:48:41.830Z,101296.38
2022-11-25T21:51:13.910Z,101305.00
2022-11-25T21:53:41.012Z,101304.25
2022-11-25T21:56:14.448Z,101301.66
2022-11-25T21:58:41.603Z,101305.72
2022-11-25T22:01:09.603Z,101315.31
2022-11-25T22:03:36.755Z,101315.28
2022-11-25T22:06:03.902Z,101310.16
2022-11-25T22:08:31.109Z,101312.81
2022-11-25T22:10:58.130Z,101311.13
2022-11-25T22:13:29.002Z,101303.97
2022-11-25T22:15:57.747Z,101302.34
2022-11-25T22:18:28.428Z,101302.38
2022-11-25T22:20:55.484Z,101298.91
2022-11-25T22:23:23.004Z,101301.53
2022-11-25T22:25:50.329Z,101300.75
2022-11-25T22:28:21.563Z,101313.66
2022-11-25T22:30:50.024Z,101313.69
2022-11-25T22:33:17.935Z,101321.34
2022-11-25T22:35:44.923Z,101315.31
2022-11-25T22:38:16.783Z,101315.31
2022-11-25T22:40:45.204Z,101323.97
2022-11-25T22:43:15.666Z,101334.28
2022-11-25T22:45:42.864Z,101330.09
2022-11-25T22:48:13.521Z,101341.31
2022-11-25T22:50:40.756Z,101340.41
2022-11-25T22:53:15.028Z,101342.22
2022-11-25T22:55:42.228Z,101346.41
2022-11-25T22:58:09.779Z,101333.44
2022-11-25T23:00:38.519Z,101328.38
2022-11-25T23:03:07.060Z,101327.47
2022-11-25T23:05:35.259Z,101316.22
2022-11-25T23:08:09.703Z,101309.34
2022-11-25T23:10:36.876Z,101317.97
2022-11-25T23:13:03.929Z,101315.34
2022-11-25T23:15:31.157Z,101317.13
2022-11-25T23:17:59.367Z,101311.03
2022-11-25T23:20:29.802Z,101310.16
2022-11-25T23:22:57.274Z,101319.53
2022-11-25T23:25:24.532Z,101318.63
2022-11-25T23:27:51.616Z,101314.34
2022-11-25T23:30:20.613Z,101322.84
2022-11-25T23:32:49.275Z,101314.97
2022-11-25T23:35:17.689Z,101314.00
2022-11-25T23:37:47.871Z,101317.59
2022-11-25T23:40:18.015Z,101315.06
2022-11-25T23:42:45.439Z,101309.03
2022-11-25T23:45:13.577Z,101319.41
2022-11-25T23:47:41.611Z,101319.53
2022-11-25T23:50:11.278Z,101321.25
2022-11-25T23:52:38.568Z,101311.06
2022-11-25T23:55:05.810Z,101316.22
2022-11-25T23:57:33.243Z,101317.91
